createdAt,value
2018-04-13T00:00:56.077Z,22.90
2018-04-13T00:03:24.224Z,23.20
2018-04-13T00:05:52.042Z,23.73
2018-04-13T00:08:22.040Z,22.70
2018-04-13T00:10:49.884Z,22.87
2018-04-13T00:13:18.682Z,25.23
2018-04-13T00:15:46.438Z,25.40
2018-04-13T00:18:14.337Z,26.87
2018-04-13T00:20:43.053Z,23.83
2018-04-13T00:23:10.837Z,24.43
2018-04-13T00:25:39.233Z,23.30
2018-04-13T00:28:07.059Z,23.00
2018-04-13T00:30:34.795Z,22.87
2018-04-13T00:33:02.508Z,25.80
2018-04-13T00:35:30.276Z,27.33
2018-04-13T00:37:58.026Z,22.93
2018-04-13T00:40:26.616Z,24.93
2018-04-13T00:42:54.378Z,31.13
2018-04-13T00:45:23.385Z,30.63
2018-04-13T00:47:52.119Z,28.17
2018-04-13T00:50:19.908Z,26.90
2018-04-13T00:52:59.384Z,28.37
2018-04-13T00:55:27.958Z,26.53
2018-04-13T00:57:57.148Z,26.83
2018-04-13T01:00:24.873Z,24.87
2018-04-13T01:02:52.626Z,24.40
2018-04-13T01:05:20.374Z,27.17
2018-04-13T01:07:49.360Z,25.90
2018-04-13T01:10:17.186Z,25.83
2018-04-13T01:12:44.908Z,27.37
2018-04-13T01:15:12.620Z,30.17
2018-04-13T01:17:41.100Z,26.87
2018-04-13T01:20:08.946Z,24.20
2018-04-13T01:22:36.661Z,22.20
2018-04-13T01:25:04.393Z,21.50
2018-04-13T01:27:32.047Z,24.40
2018-04-13T01:29:59.760Z,24.57
2018-04-13T01:32:27.428Z,24.37
2018-04-13T01:34:55.118Z,25.10
2018-04-13T01:37:23.534Z,25.93
2018-04-13T01:39:51.209Z,23.73
2018-04-13T01:42:18.885Z,24.90
2018-04-13T01:44:46.776Z,23.47
2018-04-13T01:47:15.604Z,22.87
2018-04-13T01:49:43.245Z,25.37
2018-04-13T01:52:11.832Z,23.93
2018-04-13T01:54:40.297Z,21.93
2018-04-13T01:57:07.952Z,23.30
2018-04-13T01:59:35.602Z,22.37
2018-04-13T02:02:03.358Z,22.97
2018-04-13T02:04:31.057Z,25.70
2018-04-13T02:06:59.308Z,25.30
2018-04-13T02:09:27.785Z,25.03
2018-04-13T02:11:55.425Z,25.47
2018-04-13T02:14:23.439Z,25.83
2018-04-13T02:16:51.233Z,24.83
2018-04-13T02:19:19.714Z,22.53
2018-04-13T02:21:47.401Z,23.30
2018-04-13T02:24:15.053Z,25.07
2018-04-13T02:26:43.521Z,22.53
2018-04-13T02:29:11.164Z,23.30
2018-04-13T02:31:38.893Z,21.70
2018-04-13T02:34:07.189Z,20.43
2018-04-13T02:36:34.888Z,20.80
2018-04-13T02:39:02.568Z,20.67
2018-04-13T02:41:30.256Z,18.13
2018-04-13T02:43:57.896Z,19.77
2018-04-13T02:46:25.624Z,18.80
2018-04-13T02:48:53.345Z,19.53
2018-04-13T02:51:22.364Z,25.00
2018-04-13T02:53:50.011Z,21.33
2018-04-13T02:56:17.669Z,21.50
2018-04-13T02:58:45.881Z,21.37
2018-04-13T03:01:13.521Z,21.17
2018-04-13T03:03:41.164Z,19.90
2018-04-13T03:06:09.889Z,19.70
2018-04-13T03:08:37.533Z,18.53
2018-04-13T03:11:05.983Z,17.57
2018-04-13T03:13:33.905Z,17.73
2018-04-13T03:16:01.621Z,16.67
2018-04-13T03:18:29.342Z,17.47
2018-04-13T03:20:57.084Z,19.23
2018-04-13T03:23:25.515Z,21.13
2018-04-13T03:25:53.220Z,18.57
2018-04-13T03:28:21.809Z,18.73
2018-04-13T03:30:50.853Z,16.30
2018-04-13T03:33:18.521Z,14.00
2018-04-13T03:35:46.189Z,14.83
2018-04-13T03:38:15.076Z,14.83
2018-04-13T03:40:42.755Z,15.17
2018-04-13T03:43:10.540Z,14.57
2018-04-13T03:45:38.265Z,13.70
2018-04-13T03:48:05.898Z,12.33
2018-04-13T03:50:34.493Z,13.53
2018-04-13T03:53:02.174Z,12.33
2018-04-13T03:55:29.853Z,11.67
2018-04-13T03:57:57.550Z,18.37
2018-04-13T04:00:25.246Z,22.07
2018-04-13T04:02:54.039Z,22.43
2018-04-13T04:05:22.278Z,22.53
2018-04-13T04:07:49.952Z,23.73
2018-04-13T04:10:17.606Z,23.60
2018-04-13T04:12:45.385Z,23.50
2018-04-13T04:15:13.547Z,24.33
2018-04-13T04:17:41.226Z,19.77
2018-04-13T04:20:20.974Z,17.90
2018-04-13T04:23:00.421Z,17.77
2018-04-13T04:28:30.923Z,23.00
2018-04-13T04:30:58.627Z,22.93
2018-04-13T04:33:26.305Z,25.07
2018-04-13T04:35:54.020Z,24.30
2018-04-13T04:38:22.263Z,21.60
2018-04-13T04:40:50.680Z,19.73
2018-04-13T04:43:18.348Z,17.90
2018-04-13T04:45:46.017Z,16.13
2018-04-13T04:48:14.240Z,18.00
2018-04-13T04:50:41.909Z,19.10
2018-04-13T04:53:09.547Z,19.07
2018-04-13T04:55:37.268Z,18.90
2018-04-13T04:58:04.929Z,17.17
2018-04-13T05:00:33.166Z,18.20
2018-04-13T05:03:00.856Z,17.80
2018-04-13T05:05:28.533Z,16.23
2018-04-13T05:07:56.252Z,17.50
2018-04-13T05:10:23.912Z,15.93
2018-04-13T05:12:51.614Z,16.97
2018-04-13T05:15:20.056Z,16.67
2018-04-13T05:17:47.744Z,17.37
2018-04-13T05:20:16.773Z,16.67
2018-04-13T05:22:44.420Z,16.47
2018-04-13T05:25:12.092Z,15.17
2018-04-13T05:27:39.857Z,14.03
2018-04-13T05:30:09.523Z,15.67
2018-04-13T05:32:37.277Z,15.30
2018-04-13T05:35:05.016Z,14.87
2018-04-13T05:37:32.736Z,14.50
2018-04-13T05:40:00.372Z,13.37
2018-04-13T05:42:28.575Z,12.37
2018-04-13T05:44:56.331Z,10.87
2018-04-13T05:47:24.063Z,12.70
2018-04-13T05:49:51.726Z,10.93
2018-04-13T05:52:20.213Z,10.63
2018-04-13T05:54:47.878Z,11.20
2018-04-13T05:57:15.536Z,11.50
2018-04-13T05:59:45.940Z,12.30
2018-04-13T06:02:14.051Z,12.43
2018-04-13T06:04:41.697Z,12.50
2018-04-13T06:07:10.189Z,11.67
2018-04-13T06:09:38.637Z,11.37
2018-04-13T06:12:06.300Z,10.07
2018-04-13T06:14:33.970Z,12.67
2018-04-13T06:17:01.834Z,12.07
2018-04-13T06:19:29.560Z,11.00
2018-04-13T06:21:57.322Z,14.00
2018-04-13T06:24:25.062Z,12.23
2018-04-13T06:26:52.705Z,25.77
2018-04-13T06:29:20.420Z,26.43
2018-04-13T06:31:48.185Z,19.10
2018-04-13T06:34:15.917Z,21.07
2018-04-13T06:36:44.469Z,15.87
2018-04-13T06:39:13.585Z,14.47
2018-04-13T06:41:41.256Z,19.17
2018-04-13T06:44:08.913Z,25.77
2018-04-13T06:46:36.697Z,24.50
2018-04-13T06:49:04.396Z,25.20
2018-04-13T06:51:32.347Z,27.50
2018-04-13T06:54:00.783Z,24.97
2018-04-13T06:56:28.929Z,24.37
2018-04-13T06:58:56.612Z,23.33
2018-04-13T07:01:27.321Z,17.07
2018-04-13T07:04:02.323Z,16.83
2018-04-13T07:06:34.049Z,14.97
2018-04-13T07:09:08.412Z,13.80
2018-04-13T07:11:36.133Z,13.17
2018-04-13T07:14:04.691Z,18.03
2018-04-13T07:16:32.577Z,13.67
2018-04-13T07:19:03.134Z,13.80
2018-04-13T07:21:32.559Z,15.00
2018-04-13T07:24:00.379Z,16.30
2018-04-13T07:26:28.325Z,16.97
2018-04-13T07:28:57.231Z,15.27
2018-04-13T07:31:24.962Z,14.63
2018-04-13T07:33:53.415Z,13.77
2018-04-13T07:36:21.290Z,15.90
2018-04-13T07:38:50.677Z,15.20
2018-04-13T07:41:18.359Z,15.00
2018-04-13T07:43:46.141Z,13.27
2018-04-13T07:46:15.030Z,15.40
2018-04-13T07:48:42.718Z,10.10
2018-04-13T07:51:10.403Z,12.40
2018-04-13T07:53:39.212Z,13.43
2018-04-13T07:56:06.906Z,16.80
2018-04-13T07:58:36.503Z,13.77
2018-04-13T08:01:07.556Z,17.97
2018-04-13T08:03:35.219Z,14.53
2018-04-13T08:06:02.915Z,18.57
2018-04-13T08:08:30.701Z,18.60
2018-04-13T08:10:59.272Z,17.53
2018-04-13T08:13:27.977Z,16.87
2018-04-13T08:15:56.425Z,14.37
2018-04-13T08:18:24.171Z,16.43
2018-04-13T08:20:51.846Z,18.07
2018-04-13T08:23:19.599Z,18.13
2018-04-13T08:25:47.295Z,15.10
2018-04-13T08:28:15.399Z,15.33
2018-04-13T08:30:43.410Z,17.83
2018-04-13T08:33:11.806Z,19.03
2018-04-13T08:35:39.517Z,17.57
2018-04-13T08:38:07.240Z,16.73
2018-04-13T08:40:35.693Z,18.87
2018-04-13T08:43:03.591Z,20.67
2018-04-13T08:45:31.330Z,20.63
2018-04-13T08:47:59.042Z,20.50
2018-04-13T08:50:27.392Z,21.03
2018-04-13T08:52:55.538Z,20.93
2018-04-13T08:55:25.991Z,19.70
2018-04-13T08:57:53.920Z,19.13
2018-04-13T09:00:21.613Z,20.30
2018-04-13T09:02:49.347Z,20.70
2018-04-13T09:05:17.122Z,20.13
2018-04-13T09:07:45.665Z,22.53
2018-04-13T09:10:13.328Z,19.97
2018-04-13T09:12:41.042Z,18.40
2018-04-13T09:15:08.987Z,19.13
2018-04-13T09:17:38.296Z,17.53
2018-04-13T09:20:06.076Z,20.33
2018-04-13T09:22:34.519Z,18.60
2018-04-13T09:25:02.348Z,18.50
2018-04-13T09:27:30.062Z,18.30
2018-04-13T09:29:57.853Z,18.33
2018-04-13T09:32:25.853Z,15.47
2018-04-13T09:34:54.368Z,16.20
2018-04-13T09:37:22.301Z,16.97
2018-04-13T09:39:50.849Z,16.80
2018-04-13T09:42:18.587Z,17.27
2018-04-13T09:44:46.354Z,19.13
2018-04-13T09:47:14.272Z,18.33
2018-04-13T09:49:42.866Z,18.53
2018-04-13T09:52:11.374Z,18.00
2018-04-13T09:54:39.345Z,15.70
2018-04-13T09:57:08.667Z,18.97
2018-04-13T09:59:37.487Z,15.83
2018-04-13T10:02:05.343Z,16.13
2018-04-13T10:04:38.620Z,16.43
2018-04-13T10:07:06.364Z,16.43
2018-04-13T10:09:34.894Z,17.63
2018-04-13T10:12:02.725Z,17.33
2018-04-13T10:14:30.700Z,17.70
2018-04-13T10:16:59.345Z,18.57
2018-04-13T10:19:27.128Z,18.60
2018-04-13T10:21:56.783Z,16.93
2018-04-13T10:24:26.235Z,17.20
2018-04-13T10:26:55.098Z,15.83
2018-04-13T10:29:22.849Z,18.07
2018-04-13T10:31:50.722Z,19.13
2018-04-13T10:34:22.214Z,18.70
2018-04-13T10:36:52.013Z,15.97
2018-04-13T10:39:20.306Z,16.97
2018-04-13T10:41:48.785Z,17.87
2018-04-13T10:44:16.696Z,19.20
2018-04-13T10:46:46.385Z,15.57
2018-04-13T10:49:14.120Z,17.10
2018-04-13T10:51:41.811Z,14.63
2018-04-13T10:54:10.184Z,17.30
2018-04-13T10:56:37.846Z,16.60
2018-04-13T10:59:05.522Z,17.07
2018-04-13T11:01:33.762Z,17.10
2018-04-13T11:04:02.336Z,16.70
2018-04-13T11:06:30.033Z,14.33
2018-04-13T11:08:57.692Z,17.07
2018-04-13T11:11:25.406Z,16.77
2018-04-13T11:13:53.873Z,19.27
2018-04-13T11:16:21.668Z,18.73
2018-04-13T11:18:49.396Z,17.40
2018-04-13T11:21:17.944Z,18.30
2018-04-13T11:23:45.777Z,17.70
2018-04-13T11:26:13.695Z,18.60
2018-04-13T11:28:41.598Z,17.57
2018-04-13T11:31:09.317Z,17.77
2018-04-13T11:33:38.849Z,19.40
2018-04-13T11:36:07.361Z,19.93
2018-04-13T11:38:35.844Z,19.13
2018-04-13T11:41:03.813Z,19.50
2018-04-13T11:43:32.409Z,19.37
2018-04-13T11:46:01.278Z,18.73
2018-04-13T11:48:30.497Z,18.27
2018-04-13T11:50:58.466Z,19.17
2018-04-13T11:53:27.148Z,19.87
2018-04-13T11:55:55.846Z,21.50
2018-04-13T11:58:23.530Z,18.83
2018-04-13T12:00:52.320Z,19.63
2018-04-13T12:03:20.014Z,18.73
2018-04-13T12:05:47.686Z,20.33
2018-04-13T12:08:17.332Z,18.60
2018-04-13T12:10:48.510Z,19.87
2018-04-13T12:13:18.118Z,19.67
2018-04-13T12:15:46.624Z,20.47
2018-04-13T12:18:15.997Z,19.73
2018-04-13T12:20:43.859Z,19.97
2018-04-13T12:23:11.591Z,20.67
2018-04-13T12:25:41.077Z,21.03
2018-04-13T12:28:08.737Z,19.67
2018-04-13T12:30:36.393Z,19.53
2018-04-13T12:33:05.009Z,21.43
2018-04-13T12:35:33.303Z,21.40
2018-04-13T12:38:00.971Z,19.90
2018-04-13T12:40:28.683Z,19.80
2018-04-13T12:42:57.873Z,19.37
2018-04-13T12:45:27.537Z,21.00
2018-04-13T12:47:55.316Z,21.13
2018-04-13T12:50:24.103Z,19.73
2018-04-13T12:52:52.571Z,18.97
2018-04-13T12:55:20.344Z,21.07
2018-04-13T12:57:48.188Z,19.53
2018-04-13T13:00:15.938Z,19.87
2018-04-13T13:02:46.315Z,19.07
2018-04-13T13:05:14.183Z,19.87
2018-04-13T13:07:41.829Z,17.53
2018-04-13T13:10:09.513Z,18.03
2018-04-13T13:12:37.196Z,16.97
2018-04-13T13:15:04.876Z,17.23
2018-04-13T13:17:34.162Z,16.90
2018-04-13T13:20:01.865Z,17.37
2018-04-13T13:22:29.535Z,17.30
2018-04-13T13:24:58.774Z,17.00
2018-04-13T13:27:26.445Z,17.77
2018-04-13T13:29:54.236Z,17.60
2018-04-13T13:32:22.499Z,17.70
2018-04-13T13:34:50.223Z,17.43
2018-04-13T13:37:17.954Z,17.67
2018-04-13T13:39:46.606Z,16.93
2018-04-13T13:42:14.271Z,16.40
2018-04-13T13:44:41.965Z,17.97
2018-04-13T13:47:10.326Z,18.60
2018-04-13T13:49:38.009Z,18.63
2018-04-13T13:52:05.990Z,19.03
2018-04-13T13:54:33.683Z,20.53
2018-04-13T13:57:02.110Z,19.53
2018-04-13T13:59:29.801Z,18.33
2018-04-13T14:01:57.692Z,19.50
2018-04-13T14:04:26.104Z,20.77
2018-04-13T14:06:53.813Z,21.37
2018-04-13T14:09:22.064Z,20.87
2018-04-13T14:11:50.235Z,19.87
2018-04-13T14:14:18.161Z,21.07
2018-04-13T14:16:45.961Z,19.57
2018-04-13T14:19:14.309Z,19.23
2018-04-13T14:21:42.802Z,19.97
2018-04-13T14:24:11.531Z,20.63
2018-04-13T14:26:39.235Z,19.43
2018-04-13T14:29:07.673Z,20.20
2018-04-13T14:31:35.372Z,20.40
2018-04-13T14:34:03.032Z,19.87
2018-04-13T14:36:30.677Z,20.63
2018-04-13T14:38:59.149Z,20.43
2018-04-13T14:41:26.943Z,20.33
2018-04-13T14:43:54.717Z,20.73
2018-04-13T14:46:22.441Z,21.47
2018-04-13T14:48:50.206Z,20.93
2018-04-13T14:51:17.982Z,20.13
2018-04-13T14:53:45.696Z,18.40
2018-04-13T14:56:14.539Z,17.60
2018-04-13T14:58:42.361Z,17.53
2018-04-13T15:01:10.264Z,15.73
2018-04-13T15:03:39.650Z,16.10
2018-04-13T15:06:07.385Z,15.37
2018-04-13T15:08:35.089Z,16.47
2018-04-13T15:11:03.602Z,16.37
2018-04-13T15:13:31.444Z,16.13
2018-04-13T15:16:00.004Z,16.03
2018-04-13T15:18:27.744Z,18.17
2018-04-13T15:20:55.424Z,17.63
2018-04-13T15:23:23.146Z,17.47
2018-04-13T15:25:50.889Z,18.77
2018-04-13T15:28:19.347Z,18.63
2018-04-13T15:30:47.179Z,19.37
2018-04-13T15:33:14.940Z,18.07
2018-04-13T15:35:42.588Z,17.67
2018-04-13T15:38:10.507Z,16.43
2018-04-13T15:40:38.169Z,16.47
2018-04-13T15:43:05.830Z,15.77
2018-04-13T15:45:33.640Z,16.13
2018-04-13T15:48:01.329Z,15.87
2018-04-13T15:50:30.454Z,15.70
2018-04-13T15:52:58.127Z,15.73
2018-04-13T15:55:26.116Z,15.77
2018-04-13T15:57:54.004Z,16.23
2018-04-13T16:00:21.765Z,16.30
2018-04-13T16:02:50.236Z,15.63
2018-04-13T16:05:18.734Z,14.80
2018-04-13T16:07:47.236Z,15.83
2018-04-13T16:10:15.401Z,14.63
2018-04-13T16:12:43.903Z,14.77
2018-04-13T16:15:12.325Z,15.30
2018-04-13T16:17:40.673Z,14.60
2018-04-13T16:20:09.381Z,14.90
2018-04-13T16:22:37.078Z,15.53
2018-04-13T16:25:06.014Z,14.40
2018-04-13T16:27:34.661Z,15.43
2018-04-13T16:30:03.285Z,14.27
2018-04-13T16:32:31.011Z,13.57
2018-04-13T16:34:58.711Z,14.00
2018-04-13T16:37:27.191Z,14.47
2018-04-13T16:39:55.676Z,14.97
2018-04-13T16:42:24.202Z,13.40
2018-04-13T16:44:51.952Z,15.03
2018-04-13T16:47:19.662Z,13.90
2018-04-13T16:49:48.789Z,14.47
2018-04-13T16:52:16.653Z,15.33
2018-04-13T16:54:45.141Z,15.77
2018-04-13T16:57:13.197Z,13.97
2018-04-13T16:59:41.073Z,15.47
2018-04-13T17:02:09.263Z,13.97
2018-04-13T17:04:36.938Z,15.63
2018-04-13T17:07:05.854Z,16.10
2018-04-13T17:09:34.242Z,16.03
2018-04-13T17:12:02.316Z,16.20
2018-04-13T17:14:30.913Z,16.37
2018-04-13T17:16:58.633Z,16.53
2018-04-13T17:19:26.353Z,15.90
2018-04-13T17:21:55.654Z,16.43
2018-04-13T17:24:23.335Z,16.17
2018-04-13T17:26:51.000Z,17.80
2018-04-13T17:29:18.803Z,17.77
2018-04-13T17:31:46.721Z,17.43
2018-04-13T17:34:14.707Z,17.07
2018-04-13T17:36:43.176Z,17.93
2018-04-13T17:39:10.869Z,17.53
2018-04-13T17:41:38.569Z,17.53
2018-04-13T17:44:06.262Z,16.50
2018-04-13T17:46:33.976Z,16.23
2018-04-13T17:49:01.636Z,17.77
2018-04-13T17:51:29.751Z,17.83
2018-04-13T17:53:58.172Z,18.47
2018-04-13T17:56:25.964Z,16.73
2018-04-13T17:58:53.628Z,17.17
2018-04-13T18:01:21.679Z,16.67
2018-04-13T18:03:49.324Z,15.97
2018-04-13T18:06:16.973Z,18.53
2018-04-13T18:08:44.649Z,16.87
2018-04-13T18:11:12.304Z,18.57
2018-04-13T18:13:40.001Z,19.47
2018-04-13T18:16:07.657Z,18.20
2018-04-13T18:18:35.371Z,17.27
2018-04-13T18:21:03.057Z,18.33
2018-04-13T18:23:30.849Z,16.83
2018-04-13T18:25:58.525Z,18.20
2018-04-13T18:28:26.216Z,16.70
2018-04-13T18:30:53.876Z,16.47
2018-04-13T18:33:22.282Z,17.57
2018-04-13T18:35:50.767Z,19.03
2018-04-13T18:38:18.448Z,18.20
2018-04-13T18:40:46.100Z,17.47
2018-04-13T18:43:15.171Z,17.93
2018-04-13T18:45:43.053Z,18.20
2018-04-13T18:48:10.697Z,18.67
2018-04-13T18:50:39.728Z,19.10
2018-04-13T18:53:09.279Z,17.10
2018-04-13T18:55:36.941Z,16.10
2018-04-13T18:58:05.370Z,16.17
2018-04-13T19:00:33.071Z,16.70
2018-04-13T19:03:00.766Z,17.33
2018-04-13T19:05:28.502Z,17.83
2018-04-13T19:07:56.218Z,20.87
2018-04-13T19:10:23.962Z,19.37
2018-04-13T19:12:52.430Z,18.17
2018-04-13T19:15:20.127Z,22.53
2018-04-13T19:17:47.804Z,17.80
2018-04-13T19:20:15.497Z,16.33
2018-04-13T19:22:43.168Z,20.77
2018-04-13T19:25:10.844Z,21.23
2018-04-13T19:27:38.524Z,22.43
2018-04-13T19:30:06.912Z,21.97
2018-04-13T19:32:34.594Z,21.23
2018-04-13T19:35:02.270Z,18.60
2018-04-13T19:37:30.321Z,19.20
2018-04-13T19:39:58.000Z,17.50
2018-04-13T19:42:26.673Z,21.53
2018-04-13T19:44:54.654Z,20.37
2018-04-13T19:47:22.314Z,22.17
2018-04-13T19:49:50.025Z,21.80
2018-04-13T19:52:18.478Z,23.77
2018-04-13T19:54:46.169Z,21.33
2018-04-13T19:57:14.687Z,22.13
2018-04-13T19:59:42.369Z,22.17
2018-04-13T20:02:10.686Z,23.67
2018-04-13T20:04:39.029Z,22.33
2018-04-13T20:07:06.714Z,22.87
2018-04-13T20:09:34.372Z,22.13
2018-04-13T20:12:02.068Z,18.90
2018-04-13T20:14:30.501Z,24.53
2018-04-13T20:16:58.208Z,25.93
2018-04-13T20:19:26.745Z,25.30
2018-04-13T20:21:54.397Z,25.27
2018-04-13T20:24:22.133Z,24.07
2018-04-13T20:26:50.969Z,24.77
2018-04-13T20:29:18.676Z,24.33
2018-04-13T20:31:46.334Z,24.73
2018-04-13T20:34:14.590Z,23.10
2018-04-13T20:36:42.285Z,25.20
2018-04-13T20:39:09.972Z,24.80
2018-04-13T20:41:38.434Z,23.60
2018-04-13T20:44:06.078Z,24.30
2018-04-13T20:46:33.815Z,20.70
2018-04-13T20:49:02.467Z,22.53
2018-04-13T20:51:30.949Z,19.53
2018-04-13T20:53:58.969Z,23.60
2018-04-13T20:56:26.662Z,22.40
2018-04-13T20:58:54.316Z,21.97
2018-04-13T21:01:22.591Z,23.00
2018-04-13T21:03:50.296Z,18.43
2018-04-13T21:06:18.926Z,17.57
2018-04-13T21:08:46.613Z,17.27
2018-04-13T21:11:15.103Z,15.07
2018-04-13T21:13:44.302Z,15.73
2018-04-13T21:16:12.229Z,19.60
2018-04-13T21:18:39.928Z,17.30
2018-04-13T21:21:09.135Z,18.83
2018-04-13T21:23:36.859Z,20.90
2018-04-13T21:26:04.618Z,19.27
2018-04-13T21:28:33.089Z,22.30
2018-04-13T21:31:01.826Z,22.67
2018-04-13T21:33:29.483Z,21.63
2018-04-13T21:35:57.794Z,19.57
2018-04-13T21:38:26.458Z,24.70
2018-04-13T21:40:54.220Z,23.70
2018-04-13T21:43:22.848Z,24.97
2018-04-13T21:45:51.709Z,21.63
2018-04-13T21:48:22.177Z,18.13
2018-04-13T21:50:51.456Z,20.47
2018-04-13T21:53:19.425Z,24.93
2018-04-13T21:55:47.157Z,22.70
2018-04-13T21:58:16.881Z,22.67
2018-04-13T22:00:46.452Z,23.97
2018-04-13T22:03:15.196Z,22.43
2018-04-13T22:05:42.973Z,17.23
2018-04-13T22:08:10.873Z,26.33
2018-04-13T22:10:40.904Z,27.43
2018-04-13T22:13:21.371Z,24.73
2018-04-13T22:15:49.812Z,23.67
2018-04-13T22:18:17.701Z,20.20
2018-04-13T22:20:47.605Z,18.27
2018-04-13T22:23:15.513Z,17.40
2018-04-13T22:25:44.908Z,15.00
2018-04-13T22:28:13.834Z,17.27
2018-04-13T22:30:41.569Z,14.40
2018-04-13T22:33:11.120Z,13.10
2018-04-13T22:35:40.335Z,13.33
2018-04-13T22:38:08.900Z,14.47
2018-04-13T22:40:37.621Z,16.00
2018-04-13T22:43:05.330Z,17.67
2018-04-13T22:45:33.452Z,15.37
2018-04-13T22:48:01.182Z,17.83
2018-04-13T22:50:29.792Z,15.40
2018-04-13T22:52:57.509Z,13.50
2018-04-13T22:55:25.227Z,13.63
2018-04-13T22:57:53.034Z,11.87
2018-04-13T23:00:20.866Z,15.77
2018-04-13T23:02:48.539Z,16.80
2018-04-13T23:05:16.517Z,16.03
2018-04-13T23:07:44.690Z,12.00
2018-04-13T23:10:13.347Z,13.87
2018-04-13T23:12:41.485Z,12.07
2018-04-13T23:15:10.397Z,13.80
2018-04-13T23:17:40.526Z,12.90
2018-04-13T23:20:08.357Z,11.03
2018-04-13T23:22:39.985Z,11.23
2018-04-13T23:25:07.675Z,12.87
2018-04-13T23:27:36.922Z,11.17
2018-04-13T23:30:06.789Z,12.63
2018-04-13T23:32:34.682Z,10.90
2018-04-13T23:35:03.892Z,13.27
2018-04-13T23:37:32.449Z,13.37
2018-04-13T23:40:01.226Z,12.53
2018-04-13T23:42:29.225Z,12.63
2018-04-13T23:44:57.087Z,12.60
2018-04-13T23:47:25.043Z,15.00
2018-04-13T23:49:52.845Z,20.83
2018-04-13T23:52:20.519Z,19.60
2018-04-13T23:54:48.510Z,17.57
2018-04-13T23:57:17.565Z,20.00
2018-04-13T23:59:45.436Z,24.03
